Symerton, Illinois
Current Conditions -  °F | °C
As of 4:55 AM on Thursday 23 Oct 2014 (Local Time) from KJOT Reporting Station
Haze Haze  
Wind Chill: 32°   Ceiling: Unl
Heat Index: 36°   Visibility: 4mi
Dew Point: 35°   Wind: 5mph
Humidity: 95%   Direction: 140°SE
Pressure: 30.22"   Gusts: NA
Location:  41.3199°N, 88.0518°W
Report Text: KJOT 230955Z AUTO 14004KT 4SM BR CLR 02/02 A3022 RMK AO2 T00240016
Loading
Personal Weather Stations






























Interactive Weather Map
Tropical Storm Tracking
New forecast layout! Learn more

10-Day Weather Forecast

Advertisements
Track Severe Weather on mobile